createdAt,value
2023-03-26T00:00:00.141Z,78.80
2023-03-26T00:05:04.482Z,40.03
2023-03-26T00:10:09.542Z,60.53
2023-03-26T00:15:14.493Z,28.17
2023-03-26T00:25:41.628Z,30.48
2023-03-26T00:30:46.744Z,24.35
2023-03-26T00:35:54.402Z,36.95
2023-03-26T00:41:06.141Z,35.22
2023-03-26T00:46:47.560Z,22.85
2023-03-26T00:52:10.234Z,59.58
2023-03-26T00:57:20.186Z,54.10
2023-03-26T01:02:30.791Z,73.05
2023-03-26T01:07:35.346Z,70.97
2023-03-26T01:12:38.909Z,20.45
2023-03-26T01:18:05.073Z,17.83
2023-03-26T01:23:53.537Z,16.50
2023-03-26T01:29:01.808Z,45.00
2023-03-26T01:34:12.517Z,21.35
2023-03-26T01:39:21.798Z,17.67
2023-03-26T01:44:32.826Z,36.65
2023-03-26T01:49:36.625Z,33.85
2023-03-26T01:54:41.442Z,53.30
2023-03-26T02:00:07.310Z,43.65
2023-03-26T02:05:17.312Z,21.42
2023-03-26T02:10:25.558Z,24.10
2023-03-26T02:15:30.639Z,56.38
2023-03-26T02:20:34.229Z,50.03
2023-03-26T02:25:39.988Z,35.13
2023-03-26T02:30:46.041Z,60.45
2023-03-26T02:35:49.687Z,46.08
2023-03-26T02:40:53.340Z,44.97
2023-03-26T02:45:58.527Z,66.93
2023-03-26T02:51:37.770Z,47.00
2023-03-26T02:56:41.347Z,59.63
2023-03-26T03:01:46.180Z,32.65
2023-03-26T03:06:57.706Z,17.73
2023-03-26T03:12:01.222Z,27.75
2023-03-26T03:17:24.531Z,21.60
2023-03-26T03:22:27.965Z,15.55
2023-03-26T03:27:31.840Z,16.15
2023-03-26T03:32:36.783Z,22.75
2023-03-26T03:42:43.610Z,22.23
2023-03-26T03:47:48.489Z,18.00
2023-03-26T03:57:56.327Z,86.82
2023-03-26T04:03:06.349Z,48.55
2023-03-26T04:08:09.904Z,29.90
2023-03-26T04:13:14.309Z,18.55
2023-03-26T04:18:20.670Z,21.58
2023-03-26T04:24:02.316Z,18.52
2023-03-26T04:29:13.076Z,25.45
2023-03-26T04:34:24.421Z,19.58
2023-03-26T04:39:29.528Z,18.17
2023-03-26T04:55:02.927Z,18.45
2023-03-26T05:00:15.545Z,17.60
2023-03-26T05:05:20.534Z,18.42
2023-03-26T05:10:24.240Z,18.70
2023-03-26T05:20:50.124Z,20.10
2023-03-26T05:30:57.262Z,19.17
2023-03-26T05:36:04.355Z,18.30
2023-03-26T05:41:09.899Z,19.70
2023-03-26T05:46:13.694Z,18.25
2023-03-26T05:51:36.021Z,19.90
2023-03-26T05:57:16.498Z,21.77
2023-03-26T06:02:20.035Z,19.70
2023-03-26T06:07:24.954Z,19.65
2023-03-26T06:17:49.860Z,21.48
2023-03-26T06:22:54.701Z,23.80
2023-03-26T06:33:01.527Z,25.83
2023-03-26T06:38:07.764Z,27.08
2023-03-26T06:43:12.011Z,30.67
2023-03-26T06:48:15.493Z,32.45
2023-03-26T06:53:20.341Z,34.00
2023-03-26T07:03:44.399Z,38.38
2023-03-26T07:08:49.222Z,35.08
2023-03-26T07:19:13.018Z,46.58
2023-03-26T07:29:47.070Z,48.20
2023-03-26T07:34:56.432Z,47.80
2023-03-26T07:40:06.248Z,42.90
2023-03-26T07:45:21.161Z,46.90
2023-03-26T07:50:26.784Z,51.67
2023-03-26T07:55:32.152Z,36.35
2023-03-26T08:00:41.108Z,41.03
2023-03-26T08:05:53.524Z,41.58
2023-03-26T08:11:10.010Z,45.85
2023-03-26T08:16:20.783Z,37.33
2023-03-26T08:21:28.463Z,25.70
2023-03-26T08:26:44.458Z,19.45
2023-03-26T08:31:50.278Z,18.65
2023-03-26T08:36:53.806Z,14.13
2023-03-26T08:42:53.822Z,13.85
2023-03-26T08:48:34.270Z,12.20
2023-03-26T08:53:59.045Z,10.98
2023-03-26T08:59:55.947Z,10.13
2023-03-26T09:05:41.929Z,10.32
2023-03-26T09:10:54.179Z,7.78
2023-03-26T09:16:36.235Z,9.98
2023-03-26T09:22:07.146Z,6.43
2023-03-26T09:27:39.505Z,5.22
2023-03-26T09:33:22.934Z,5.78
2023-03-26T09:38:47.006Z,5.97
2023-03-26T09:44:24.176Z,6.75
2023-03-26T09:49:39.612Z,5.57
2023-03-26T09:55:20.131Z,8.52
2023-03-26T10:00:29.900Z,9.27
2023-03-26T10:05:58.196Z,9.98
2023-03-26T10:11:10.233Z,7.88
2023-03-26T10:16:25.427Z,8.57
2023-03-26T10:21:59.060Z,8.93
2023-03-26T10:27:13.550Z,9.30
2023-03-26T10:32:30.856Z,9.05
2023-03-26T10:37:49.465Z,11.77
2023-03-26T10:43:25.062Z,9.80
2023-03-26T10:48:42.139Z,12.50
2023-03-26T10:54:08.283Z,13.85
2023-03-26T10:59:14.860Z,13.85
2023-03-26T11:04:35.836Z,14.85
2023-03-26T11:09:46.860Z,14.63
2023-03-26T11:14:58.870Z,14.30
2023-03-26T11:20:08.922Z,11.57
2023-03-26T11:25:46.631Z,11.88
2023-03-26T11:30:57.178Z,9.57
2023-03-26T11:36:07.152Z,7.82
2023-03-26T11:41:16.170Z,6.38
2023-03-26T11:46:28.738Z,6.22
2023-03-26T11:51:35.812Z,6.03
2023-03-26T11:57:04.524Z,6.05
2023-03-26T12:02:24.402Z,6.90
2023-03-26T12:07:34.252Z,7.57
2023-03-26T12:12:40.741Z,5.30
2023-03-26T12:17:44.272Z,9.95
2023-03-26T12:22:49.286Z,11.00
2023-03-26T12:27:58.937Z,9.10
2023-03-26T12:33:05.879Z,10.93
2023-03-26T12:38:23.779Z,9.55
2023-03-26T12:44:47.215Z,15.27
2023-03-26T12:48:58.273Z,17.38
2023-03-26T12:54:23.891Z,15.10
2023-03-26T12:59:41.024Z,13.82
2023-03-26T13:05:07.434Z,12.90
2023-03-26T13:10:39.734Z,14.15
2023-03-26T13:15:47.402Z,14.18
2023-03-26T13:20:55.256Z,20.08
2023-03-26T13:26:06.594Z,18.58
2023-03-26T13:31:16.667Z,18.40
2023-03-26T13:36:24.837Z,20.92
2023-03-26T13:41:38.177Z,20.35
2023-03-26T13:46:44.316Z,24.33
2023-03-26T13:51:51.626Z,24.95
2023-03-26T13:57:00.276Z,28.88
2023-03-26T14:02:10.938Z,24.92
2023-03-26T14:07:22.581Z,27.35
2023-03-26T14:12:49.017Z,26.45
2023-03-26T14:17:57.402Z,21.38
2023-03-26T14:23:24.071Z,29.75
2023-03-26T14:29:03.866Z,30.05
2023-03-26T14:34:24.450Z,27.08
2023-03-26T14:40:01.581Z,24.10
2023-03-26T14:45:37.771Z,22.55
2023-03-26T14:50:55.886Z,23.15
2023-03-26T14:56:27.120Z,26.40
2023-03-26T15:01:53.700Z,23.35
2023-03-26T15:07:31.399Z,24.98
2023-03-26T15:12:49.918Z,20.08
2023-03-26T15:18:29.167Z,21.35
2023-03-26T15:24:00.831Z,21.90
2023-03-26T15:29:25.882Z,19.88
2023-03-26T15:34:59.703Z,20.92
2023-03-26T15:40:27.855Z,19.05
2023-03-26T15:45:37.938Z,23.88
2023-03-26T15:50:52.923Z,21.10
2023-03-26T15:56:33.028Z,22.60
2023-03-26T16:01:52.365Z,19.65
2023-03-26T16:07:03.509Z,17.95
2023-03-26T16:12:29.823Z,18.63
2023-03-26T16:18:22.753Z,18.27
2023-03-26T16:23:29.507Z,19.33
2023-03-26T16:28:35.265Z,23.85
2023-03-26T16:33:45.770Z,23.15
2023-03-26T16:39:10.905Z,21.33
2023-03-26T16:44:21.784Z,27.15
2023-03-26T16:49:40.067Z,22.27
2023-03-26T16:54:52.756Z,21.33
2023-03-26T17:00:29.315Z,22.65
2023-03-26T17:05:39.253Z,27.45
2023-03-26T17:10:53.552Z,22.55
2023-03-26T17:16:07.409Z,28.00
2023-03-26T17:21:17.368Z,28.42
2023-03-26T17:26:27.250Z,29.73
2023-03-26T17:31:41.477Z,21.50
2023-03-26T17:36:56.483Z,27.80
2023-03-26T17:47:27.980Z,19.50
2023-03-26T17:52:55.747Z,16.43
2023-03-26T17:58:01.228Z,15.95
2023-03-26T18:03:13.306Z,20.88
2023-03-26T18:08:35.169Z,20.90
2023-03-26T18:13:55.082Z,21.85
2023-03-26T18:19:00.951Z,30.80
2023-03-26T18:24:07.912Z,65.72
2023-03-26T18:29:18.556Z,64.40
2023-03-26T18:34:22.685Z,47.20
2023-03-26T18:39:28.353Z,39.07
2023-03-26T18:44:34.506Z,34.92
2023-03-26T18:49:38.108Z,37.60
2023-03-26T18:54:44.295Z,23.13
2023-03-26T18:59:51.819Z,32.08
2023-03-26T19:04:56.845Z,20.98
2023-03-26T19:15:07.975Z,19.17
2023-03-26T19:20:17.963Z,16.55
2023-03-26T19:25:26.720Z,20.98
2023-03-26T19:30:33.483Z,18.15
2023-03-26T19:35:42.205Z,19.50
2023-03-26T19:40:47.386Z,19.35
2023-03-26T19:51:06.823Z,19.58
2023-03-26T19:56:19.427Z,20.05
2023-03-26T20:01:26.774Z,20.02
2023-03-26T20:06:42.638Z,23.88
2023-03-26T20:11:49.756Z,19.02
2023-03-26T20:16:53.861Z,24.98
2023-03-26T20:21:57.371Z,17.92
2023-03-26T20:27:02.182Z,18.75
2023-03-26T20:37:13.164Z,25.35
2023-03-26T20:42:18.117Z,19.48
2023-03-26T20:47:21.807Z,20.17
2023-03-26T20:52:25.895Z,15.43
2023-03-26T20:57:33.380Z,14.77
2023-03-26T21:02:37.182Z,15.85
2023-03-26T21:07:41.314Z,14.17
2023-03-26T21:12:52.422Z,15.53
2023-03-26T21:17:56.827Z,17.17
2023-03-26T21:23:06.327Z,12.32
2023-03-26T21:28:28.905Z,13.80
2023-03-26T21:33:41.113Z,13.23
2023-03-26T21:38:45.693Z,15.10
2023-03-26T21:43:50.829Z,16.35
2023-03-26T21:48:54.801Z,20.40
2023-03-26T21:53:58.728Z,15.90
2023-03-26T21:59:11.896Z,14.83
2023-03-26T22:04:19.595Z,16.27
2023-03-26T22:09:30.096Z,15.65
2023-03-26T22:14:40.686Z,16.70
2023-03-26T22:19:44.091Z,14.07
2023-03-26T22:24:48.006Z,14.10
2023-03-26T22:29:53.064Z,12.13
2023-03-26T22:34:56.526Z,14.25
2023-03-26T22:40:00.347Z,12.18
2023-03-26T22:45:06.213Z,12.32
2023-03-26T22:50:11.758Z,12.40
2023-03-26T22:55:15.833Z,11.50
2023-03-26T23:00:34.968Z,10.15
2023-03-26T23:05:38.791Z,10.18
2023-03-26T23:10:44.176Z,9.85
2023-03-26T23:15:52.289Z,10.27
2023-03-26T23:20:57.917Z,10.73
2023-03-26T23:26:03.160Z,10.18
2023-03-26T23:31:10.342Z,10.93
2023-03-26T23:36:15.038Z,9.65
2023-03-26T23:41:21.772Z,8.93
2023-03-26T23:46:30.909Z,9.05
2023-03-26T23:51:36.273Z,8.52
2023-03-26T23:56:39.943Z,7.35
